Time,TemperatureF,DewpointF,PressureIn,WindDirection,WindDirectionDegrees,WindSpeedMPH,WindSpeedGustMPH,Humidity,HourlyPrecipIn,Conditions,Clouds,dailyrainin,SoftwareType,DateUTC
2013-11-09 00:01:00,28.9,23.5,30.21,WNW,294,3.5,0.0,80,0.00,CLR,,0.00,WeatherDisplay:10.37,2013-11-09 05:01:00,
2013-11-09 00:06:00,28.8,23.4,30.18,NW,319,3.1,0.0,80,0.00,CLR,,0.00,WeatherDisplay:10.37,2013-11-09 05:06:00,
2013-11-09 00:11:00,28.4,23.0,30.18,NW,317,2.7,0.0,80,0.00,CLR,,0.00,WeatherDisplay:10.37,2013-11-09 05:11:00,
2013-11-09 00:16:00,28.0,22.7,30.18,NW,310,3.5,0.0,80,0.00,CLR,,0.00,WeatherDisplay:10.37,2013-11-09 05:16:00,
2013-11-09 00:21:00,28.2,23.1,30.18,WNW,298,3.6,3.6,81,0.00,CLR,,0.00,WeatherDisplay:10.37,2013-11-09 05:21:00,
2013-11-09 00:26:00,28.4,23.3,30.18,WNW,284,2.3,0.0,81,0.00,CLR,,0.00,WeatherDisplay:10.37,2013-11-09 05:26:00,
2013-11-09 00:31:00,28.6,23.5,30.18,NW,323,4.0,0.0,81,0.00,CLR,,0.00,WeatherDisplay:10.37,2013-11-09 05:31:00,
2013-11-09 00:36:00,28.6,23.5,30.21,NNW,331,3.5,3.5,81,0.00,CLR,,0.00,WeatherDisplay:10.37,2013-11-09 05:36:00,
2013-11-09 00:41:00,28.2,23.1,30.21,WNW,294,0.0,0.0,81,0.00,CLR,,0.00,WeatherDisplay:10.37,2013-11-09 05:41:00,
2013-11-09 00:46:00,28.0,23.0,30.21,WNW,294,3.5,0.0,81,0.00,CLR,,0.00,WeatherDisplay:10.37,2013-11-09 05:46:00,
2013-11-09 00:51:00,27.9,22.8,30.21,WNW,291,2.7,0.0,81,0.00,CLR,,0.00,WeatherDisplay:10.37,2013-11-09 05:51:00,
2013-11-09 00:56:00,27.7,22.6,30.21,WNW,291,0.0,0.0,81,0.00,CLR,,0.00,WeatherDisplay:10.37,2013-11-09 05:56:00,
2013-11-09 01:01:00,27.3,22.5,30.21,WNW,291,0.0,0.0,82,0.00,CLR,,0.00,WeatherDisplay:10.37,2013-11-09 06:01:00,
2013-11-09 01:06:00,27.1,22.4,30.21,WNW,291,0.0,0.0,82,0.00,CLR,,0.00,WeatherDisplay:10.37,2013-11-09 06:06:00,
2013-11-09 01:11:00,27.0,22.2,30.21,West,278,0.0,0.0,82,0.00,CLR,,0.00,WeatherDisplay:10.37,2013-11-09 06:11:00,
2013-11-09 01:16:00,27.0,22.2,30.21,WSW,237,0.0,0.0,82,0.00,CLR,,0.00,WeatherDisplay:10.37,2013-11-09 06:16:00,
2013-11-09 01:21:00,26.8,22.0,30.18,SW,236,2.7,2.7,82,0.00,CLR,,0.00,WeatherDisplay:10.37,2013-11-09 06:21:00,
2013-11-09 01:26:00,26.6,21.8,30.18,West,269,2.7,2.7,82,0.00,CLR,,0.00,WeatherDisplay:10.37,2013-11-09 06:26:00,
2013-11-09 01:31:00,27.1,22.4,30.18,SSW,209,3.6,3.6,82,0.00,CLR,,0.00,WeatherDisplay:10.37,2013-11-09 06:31:00,
2013-11-09 01:36:00,27.1,22.4,30.18,SW,227,3.5,3.5,82,0.00,CLR,,0.00,WeatherDisplay:10.37,2013-11-09 06:36:00,
2013-11-09 01:41:00,27.1,22.7,30.18,SW,216,3.5,3.5,83,0.00,CLR,,0.00,WeatherDisplay:10.37,2013-11-09 06:41:00,
2013-11-09 01:46:00,27.1,22.7,30.18,SW,216,3.5,3.5,83,0.00,CLR,,0.00,WeatherDisplay:10.37,2013-11-09 06:46:00,
2013-11-09 01:51:00,27.1,22.7,30.18,SW,231,3.5,3.5,83,0.00,CLR,,0.00,WeatherDisplay:10.37,2013-11-09 06:51:00,
2013-11-09 01:56:00,27.3,22.8,30.18,SW,214,3.5,3.5,83,0.00,CLR,,0.00,WeatherDisplay:10.37,2013-11-09 06:56:00,
2013-11-09 02:01:00,27.3,22.8,30.18,SW,217,3.5,3.5,83,0.00,CLR,,0.00,WeatherDisplay:10.37,2013-11-09 07:01:00,
2013-11-09 02:06:00,27.3,22.8,30.18,SSW,212,3.5,3.5,83,0.00,CLR,,0.00,WeatherDisplay:10.37,2013-11-09 07:06:00,
2013-11-09 02:11:00,27.5,23.0,30.18,WSW,237,3.5,3.5,83,0.00,CLR,,0.00,WeatherDisplay:10.37,2013-11-09 07:11:00,
2013-11-09 02:16:00,27.5,23.0,30.18,SW,235,3.5,3.5,83,0.00,CLR,,0.00,WeatherDisplay:10.37,2013-11-09 07:16:00,
2013-11-09 02:21:00,27.5,23.0,30.18,WSW,241,2.3,0.0,83,0.00,CLR,,0.00,WeatherDisplay:10.37,2013-11-09 07:21:00,
2013-11-09 02:26:00,27.5,23.0,30.18,SW,226,3.5,3.5,83,0.00,CLR,,0.00,WeatherDisplay:10.37,2013-11-09 07:26:00,
2013-11-09 02:31:00,27.5,23.0,30.18,SW,233,3.5,3.5,83,0.00,CLR,,0.00,WeatherDisplay:10.37,2013-11-09 07:31:00,
2013-11-09 02:36:00,27.5,23.0,30.21,SW,221,3.5,0.0,83,0.00,CLR,,0.00,WeatherDisplay:10.37,2013-11-09 07:36:00,
2013-11-09 02:41:00,27.3,22.8,30.21,SW,221,0.0,0.0,83,0.00,CLR,,0.00,WeatherDisplay:10.37,2013-11-09 07:41:00,
2013-11-09 02:46:00,27.3,22.8,30.21,SW,221,2.7,2.7,83,0.00,CLR,,0.00,WeatherDisplay:10.37,2013-11-09 07:46:00,
2013-11-09 02:51:00,27.3,22.8,30.21,WSW,238,3.5,0.0,83,0.00,CLR,,0.00,WeatherDisplay:10.37,2013-11-09 07:51:00,
2013-11-09 02:56:00,27.1,22.7,30.21,SW,230,3.1,3.1,83,0.00,CLR,,0.00,WeatherDisplay:10.37,2013-11-09 07:56:00,
2013-11-09 03:01:00,27.1,22.7,30.21,SW,230,3.5,3.5,83,0.00,CLR,,0.00,WeatherDisplay:10.37,2013-11-09 08:01:00,
2013-11-09 03:06:00,27.0,22.5,30.21,SW,219,3.5,3.5,83,0.00,CLR,,0.00,WeatherDisplay:10.37,2013-11-09 08:06:00,
2013-11-09 03:11:00,27.0,22.5,30.21,SSW,206,4.6,4.6,83,0.00,CLR,,0.00,WeatherDisplay:10.37,2013-11-09 08:11:00,
2013-11-09 03:16:00,27.0,22.5,30.21,SW,214,5.4,5.4,83,0.00,CLR,,0.00,WeatherDisplay:10.37,2013-11-09 08:16:00,
2013-11-09 03:21:00,27.0,22.5,30.18,SW,224,3.6,3.6,83,0.00,CLR,,0.00,WeatherDisplay:10.37,2013-11-09 08:21:00,
2013-11-09 03:26:00,27.0,22.5,30.18,SW,224,4.6,4.6,83,0.00,CLR,,0.00,WeatherDisplay:10.37,2013-11-09 08:26:00,
2013-11-09 03:32:00,27.0,22.5,30.18,West,267,3.5,3.5,83,0.00,CLR,,0.00,WeatherDisplay:10.37,2013-11-09 08:32:00,
2013-11-09 03:37:00,27.0,22.5,30.18,SW,233,4.6,4.6,83,0.00,CLR,,0.00,WeatherDisplay:10.37,2013-11-09 08:37:00,
2013-11-09 03:42:00,26.8,22.3,30.18,SSW,202,4.6,4.6,83,0.00,CLR,,0.00,WeatherDisplay:10.37,2013-11-09 08:42:00,
2013-11-09 03:47:00,26.4,22.2,30.18,SW,219,5.8,5.8,84,0.00,CLR,,0.00,WeatherDisplay:10.37,2013-11-09 08:47:00,
2013-11-09 03:52:00,26.2,22.1,30.18,SSW,192,4.6,4.6,84,0.00,CLR,,0.00,WeatherDisplay:10.37,2013-11-09 08:52:00,
2013-11-09 03:57:00,26.1,21.9,30.18,SW,220,5.8,5.8,84,0.00,CLR,,0.00,WeatherDisplay:10.37,2013-11-09 08:57:00,
2013-11-09 04:02:00,26.1,21.9,30.18,SW,219,5.8,5.8,84,0.00,CLR,,0.00,WeatherDisplay:10.37,2013-11-09 09:02:00,
2013-11-09 04:07:00,26.1,22.2,30.18,SSW,212,5.8,5.8,85,0.00,CLR,,0.00,WeatherDisplay:10.37,2013-11-09 09:07:00,
2013-11-09 04:12:00,26.2,22.3,30.18,SSW,198,4.6,4.6,85,0.00,CLR,,0.00,WeatherDisplay:10.37,2013-11-09 09:12:00,
2013-11-09 04:17:00,26.4,22.5,30.18,SW,223,3.5,3.5,85,0.00,CLR,,0.00,WeatherDisplay:10.37,2013-11-09 09:17:00,
2013-11-09 04:22:00,26.4,22.5,30.18,WSW,237,5.8,5.8,85,0.00,CLR,,0.00,WeatherDisplay:10.37,2013-11-09 09:22:00,
2013-11-09 04:27:00,26.8,22.9,30.18,WSW,240,5.8,5.8,85,0.00,CLR,,0.00,WeatherDisplay:10.37,2013-11-09 09:27:00,
2013-11-09 04:32:00,26.8,22.9,30.18,WSW,254,3.6,3.6,85,0.00,CLR,,0.00,WeatherDisplay:10.37,2013-11-09 09:32:00,
2013-11-09 04:37:00,27.0,23.1,30.18,WSW,237,4.6,4.6,85,0.00,CLR,,0.00,WeatherDisplay:10.37,2013-11-09 09:37:00,
2013-11-09 04:42:00,27.0,23.1,30.18,WSW,238,4.0,4.0,85,0.00,CLR,,0.00,WeatherDisplay:10.37,2013-11-09 09:42:00,
2013-11-09 04:47:00,27.0,23.1,30.18,SW,235,5.4,5.4,85,0.00,CLR,,0.00,WeatherDisplay:10.37,2013-11-09 09:47:00,
2013-11-09 04:52:00,27.1,23.2,30.18,SW,230,5.8,5.8,85,0.00,CLR,,0.00,WeatherDisplay:10.37,2013-11-09 09:52:00,
2013-11-09 04:57:00,27.1,23.2,30.18,SSW,213,3.6,3.6,85,0.00,CLR,,0.00,WeatherDisplay:10.37,2013-11-09 09:57:00,
2013-11-09 05:02:00,27.5,23.6,30.18,SW,215,5.8,5.8,85,0.00,CLR,,0.00,WeatherDisplay:10.37,2013-11-09 10:02:00,
2013-11-09 05:07:00,27.7,23.8,30.18,SSW,206,5.8,5.8,85,0.00,CLR,,0.00,WeatherDisplay:10.37,2013-11-09 10:07:00,
2013-11-09 05:12:00,27.7,23.8,30.18,SSW,200,4.0,4.0,85,0.00,CLR,,0.00,WeatherDisplay:10.37,2013-11-09 10:12:00,
2013-11-09 05:17:00,27.7,23.8,30.18,SSW,208,5.8,5.8,85,0.00,CLR,,0.00,WeatherDisplay:10.37,2013-11-09 10:17:00,
2013-11-09 05:22:00,27.7,23.8,30.18,SW,235,5.8,5.8,85,0.00,CLR,,0.00,WeatherDisplay:10.37,2013-11-09 10:22:00,
2013-11-09 05:27:00,27.9,23.9,30.18,WSW,244,5.8,5.8,85,0.00,CLR,,0.00,WeatherDisplay:10.37,2013-11-09 10:27:00,
2013-11-09 05:32:00,27.9,23.9,30.18,WNW,293,3.5,3.5,85,0.00,CLR,,0.00,WeatherDisplay:10.37,2013-11-09 10:32:00,
2013-11-09 05:37:00,28.0,24.1,30.18,SW,227,3.5,3.5,85,0.00,CLR,,0.00,WeatherDisplay:10.37,2013-11-09 10:37:00,
2013-11-09 05:42:00,28.0,24.1,30.18,SW,225,5.8,5.8,85,0.00,CLR,,0.00,WeatherDisplay:10.37,2013-11-09 10:42:00,
2013-11-09 05:47:00,28.2,24.3,30.18,SSW,193,3.5,0.0,85,0.00,CLR,,0.00,WeatherDisplay:10.37,2013-11-09 10:47:00,
2013-11-09 05:52:00,28.2,24.0,30.18,SW,235,5.8,5.8,84,0.00,CLR,,0.00,WeatherDisplay:10.37,2013-11-09 10:52:00,
2013-11-09 05:57:00,28.2,24.0,30.18,SW,220,5.8,5.8,84,0.00,CLR,,0.00,WeatherDisplay:10.37,2013-11-09 10:57:00,
2013-11-09 06:02:00,28.4,24.5,30.18,WSW,250,5.8,5.8,85,0.00,CLR,,0.00,WeatherDisplay:10.37,2013-11-09 11:02:00,
2013-11-09 06:07:00,28.4,24.2,30.18,WNW,298,3.5,3.5,84,0.00,CLR,,0.00,WeatherDisplay:10.37,2013-11-09 11:07:00,
2013-11-09 06:12:00,28.4,24.2,30.18,WSW,241,5.8,5.8,84,0.00,CLR,,0.00,WeatherDisplay:10.37,2013-11-09 11:12:00,
2013-11-09 06:17:00,28.2,24.0,30.18,WSW,248,5.8,5.8,84,0.00,CLR,,0.00,WeatherDisplay:10.37,2013-11-09 11:17:00,
2013-11-09 06:22:00,28.2,24.0,30.18,SW,217,4.6,4.6,84,0.00,CLR,,0.00,WeatherDisplay:10.37,2013-11-09 11:22:00,
2013-11-09 06:27:00,28.6,24.1,30.18,SSW,207,5.8,5.8,83,0.00,CLR,,0.00,WeatherDisplay:10.37,2013-11-09 11:27:00,
2013-11-09 06:32:00,28.6,24.1,30.18,SW,222,4.6,4.6,83,0.00,CLR,,0.00,WeatherDisplay:10.37,2013-11-09 11:32:00,
2013-11-09 06:37:00,28.8,24.2,30.18,SW,236,5.8,5.8,83,0.00,CLR,,0.00,WeatherDisplay:10.37,2013-11-09 11:37:00,
2013-11-09 06:42:00,28.6,24.1,30.18,SSW,195,5.8,5.8,83,0.00,CLR,,0.00,WeatherDisplay:10.37,2013-11-09 11:42:00,
2013-11-09 06:47:00,28.6,24.1,30.18,SSW,194,5.8,5.8,83,0.00,CLR,,0.00,WeatherDisplay:10.37,2013-11-09 11:47:00,
2013-11-09 06:52:00,28.8,24.2,30.18,South,171,8.1,8.1,83,0.00,CLR,,0.00,WeatherDisplay:10.37,2013-11-09 11:52:00,
2013-11-09 06:57:00,28.9,24.4,30.18,South,178,5.8,5.8,83,0.00,CLR,,0.00,WeatherDisplay:10.37,2013-11-09 11:57:00,
2013-11-09 07:02:00,29.1,24.6,30.18,WSW,240,5.8,5.8,83,0.00,CLR,,0.00,WeatherDisplay:10.37,2013-11-09 12:02:00,
2013-11-09 07:07:00,29.3,24.8,30.18,WSW,239,3.5,3.5,83,0.00,CLR,,0.00,WeatherDisplay:10.37,2013-11-09 12:07:00,
2013-11-09 07:12:00,29.3,24.8,30.18,SW,224,3.5,0.0,83,0.00,CLR,,0.00,WeatherDisplay:10.37,2013-11-09 12:12:00,
2013-11-09 07:17:00,29.5,25.0,30.18,SW,224,3.5,3.5,83,0.00,CLR,,0.00,WeatherDisplay:10.37,2013-11-09 12:17:00,
2013-11-09 07:22:00,29.5,25.0,30.18,SW,217,3.5,3.5,83,0.00,CLR,,0.00,WeatherDisplay:10.37,2013-11-09 12:22:00,
2013-11-09 07:28:00,29.5,24.7,30.18,WSW,243,5.8,5.8,82,0.00,CLR,,0.00,WeatherDisplay:10.37,2013-11-09 12:28:00,
2013-11-09 07:33:00,29.7,24.8,30.18,WSW,250,6.9,6.9,82,0.00,CLR,,0.00,WeatherDisplay:10.37,2013-11-09 12:33:00,
2013-11-09 07:38:00,29.7,24.8,30.18,SSW,212,5.8,5.8,82,0.00,CLR,,0.00,WeatherDisplay:10.37,2013-11-09 12:38:00,
2013-11-09 07:43:00,30.0,25.2,30.18,South,175,5.8,5.8,82,0.00,CLR,,0.00,WeatherDisplay:10.37,2013-11-09 12:43:00,
2013-11-09 07:48:00,30.2,25.4,30.18,SSE,156,3.5,3.5,82,0.00,CLR,,0.00,WeatherDisplay:10.37,2013-11-09 12:48:00,
2013-11-09 07:53:00,30.6,25.7,30.18,SSW,198,8.1,8.1,82,0.00,CLR,,0.00,WeatherDisplay:10.37,2013-11-09 12:53:00,
2013-11-09 07:58:00,30.7,25.9,30.18,SSW,198,5.8,5.8,82,0.00,CLR,,0.00,WeatherDisplay:10.37,2013-11-09 12:58:00,
2013-11-09 08:03:00,30.9,25.8,30.18,South,191,8.1,8.1,81,0.00,CLR,,0.00,WeatherDisplay:10.37,2013-11-09 13:03:00,
2013-11-09 08:08:00,30.9,25.8,30.15,SSW,197,5.8,5.8,81,0.00,CLR,,0.00,WeatherDisplay:10.37,2013-11-09 13:08:00,
2013-11-09 08:13:00,31.1,26.0,30.15,SSE,153,8.1,8.1,81,0.00,CLR,,0.00,WeatherDisplay:10.37,2013-11-09 13:13:00,
2013-11-09 08:18:00,31.3,26.1,30.15,SSW,212,5.8,5.8,81,0.00,CLR,,0.00,WeatherDisplay:10.37,2013-11-09 13:18:00,
2013-11-09 08:23:00,31.5,26.3,30.18,SW,222,5.8,5.8,81,0.00,CLR,,0.00,WeatherDisplay:10.37,2013-11-09 13:23:00,
2013-11-09 08:28:00,31.6,26.5,30.18,SW,216,4.0,4.0,81,0.00,CLR,,0.00,WeatherDisplay:10.37,2013-11-09 13:28:00,
2013-11-09 08:33:00,31.8,26.7,30.18,SSW,205,3.5,3.5,81,0.00,CLR,,0.00,WeatherDisplay:10.37,2013-11-09 13:33:00,
2013-11-09 08:38:00,32.0,26.8,30.18,SW,218,5.8,5.8,81,0.00,CLR,,0.00,WeatherDisplay:10.37,2013-11-09 13:38:00,
2013-11-09 08:43:00,32.4,26.9,30.18,SSW,196,3.5,3.5,80,0.00,CLR,,0.00,WeatherDisplay:10.37,2013-11-09 13:43:00,
2013-11-09 08:48:00,32.7,27.2,30.18,SW,229,8.1,8.1,80,0.00,CLR,,0.00,WeatherDisplay:10.37,2013-11-09 13:48:00,
2013-11-09 08:53:00,33.1,27.6,30.18,SW,229,5.8,5.8,80,0.00,CLR,,0.00,WeatherDisplay:10.37,2013-11-09 13:53:00,
2013-11-09 08:58:00,33.6,28.1,30.18,East,101,3.5,0.0,80,0.00,CLR,,0.00,WeatherDisplay:10.37,2013-11-09 13:58:00,
2013-11-09 09:03:00,33.8,28.0,30.18,SSW,210,5.8,5.8,79,0.00,CLR,,0.00,WeatherDisplay:10.37,2013-11-09 14:03:00,
2013-11-09 09:08:00,34.0,28.2,30.18,SW,217,3.5,3.6,79,0.00,CLR,,0.00,WeatherDisplay:10.37,2013-11-09 14:08:00,
2013-11-09 09:13:00,34.0,28.2,30.18,SW,220,9.2,9.2,79,0.00,CLR,,0.00,WeatherDisplay:10.37,2013-11-09 14:13:00,
2013-11-09 09:18:00,34.2,28.3,30.18,South,191,9.2,9.2,79,0.00,CLR,,0.00,WeatherDisplay:10.37,2013-11-09 14:18:00,
2013-11-09 09:23:00,34.3,28.5,30.15,SSW,200,5.8,5.8,79,0.00,CLR,,0.00,WeatherDisplay:10.37,2013-11-09 14:23:00,
2013-11-09 09:28:00,34.7,28.9,30.15,SSW,211,8.1,8.1,79,0.00,CLR,,0.00,WeatherDisplay:10.37,2013-11-09 14:28:00,
2013-11-09 09:33:00,35.4,29.6,30.15,SSW,198,9.2,9.2,79,0.00,CLR,,0.00,WeatherDisplay:10.37,2013-11-09 14:33:00,
2013-11-09 09:38:00,36.0,29.4,30.15,SW,217,3.5,0.0,77,0.00,CLR,,0.00,WeatherDisplay:10.37,2013-11-09 14:38:00,
2013-11-09 09:43:00,36.5,30.0,30.15,SW,224,8.7,8.7,77,0.00,CLR,,0.00,WeatherDisplay:10.37,2013-11-09 14:43:00,
2013-11-09 09:48:00,37.0,30.5,30.15,WSW,257,3.5,3.5,77,0.00,CLR,,0.00,WeatherDisplay:10.37,2013-11-09 14:48:00,
2013-11-09 09:53:00,37.6,30.0,30.15,SE,140,0.0,0.0,74,0.00,CLR,,0.00,WeatherDisplay:10.37,2013-11-09 14:53:00,
2013-11-09 09:58:00,38.1,30.6,30.15,South,175,4.6,4.6,74,0.00,CLR,,0.00,WeatherDisplay:10.37,2013-11-09 14:58:00,
2013-11-09 10:03:00,38.7,31.1,30.15,SSW,198,5.8,5.8,74,0.00,CLR,,0.00,WeatherDisplay:10.37,2013-11-09 15:03:00,
2013-11-09 10:08:00,38.8,31.3,30.15,WSW,244,8.1,8.1,74,0.00,CLR,,0.00,WeatherDisplay:10.37,2013-11-09 15:08:00,
2013-11-09 10:13:00,39.4,31.4,30.15,South,181,8.1,8.1,73,0.00,CLR,,0.00,WeatherDisplay:10.37,2013-11-09 15:13:00,
2013-11-09 10:18:00,39.7,31.8,30.15,SSW,199,9.2,9.2,73,0.00,CLR,,0.00,WeatherDisplay:10.37,2013-11-09 15:18:00,
2013-11-09 10:23:00,39.9,31.3,30.15,SSW,212,10.4,10.4,71,0.00,CLR,,0.00,WeatherDisplay:10.37,2013-11-09 15:23:00,
2013-11-09 10:28:00,40.3,31.6,30.15,SW,236,4.6,4.6,71,0.00,CLR,,0.00,WeatherDisplay:10.37,2013-11-09 15:28:00,
2013-11-09 10:33:00,40.3,31.6,30.15,SSW,200,5.8,5.8,71,0.00,CLR,,0.00,WeatherDisplay:10.37,2013-11-09 15:33:00,
2013-11-09 10:38:00,40.5,31.8,30.15,WSW,243,10.4,10.4,71,0.00,CLR,,0.00,WeatherDisplay:10.37,2013-11-09 15:38:00,
2013-11-09 10:43:00,40.1,31.4,30.15,SSW,198,11.5,11.5,71,0.00,CLR,,0.00,WeatherDisplay:10.37,2013-11-09 15:43:00,
2013-11-09 10:48:00,39.9,31.3,30.15,South,185,8.1,8.1,71,0.00,CLR,,0.00,WeatherDisplay:10.37,2013-11-09 15:48:00,
2013-11-09 10:53:00,40.1,31.4,30.12,West,270,12.7,12.7,71,0.00,CLR,,0.00,WeatherDisplay:10.37,2013-11-09 15:53:00,
2013-11-09 10:58:00,40.5,31.8,30.12,SW,236,8.1,8.1,71,0.00,CLR,,0.00,WeatherDisplay:10.37,2013-11-09 15:58:00,
2013-11-09 11:03:00,41.0,32.3,30.12,SW,220,5.8,5.8,71,0.00,CLR,,0.00,WeatherDisplay:10.37,2013-11-09 16:03:00,
2013-11-09 11:08:00,41.5,32.8,30.12,WSW,251,10.4,10.4,71,0.00,CLR,,0.00,WeatherDisplay:10.37,2013-11-09 16:08:00,
2013-11-09 11:13:00,42.1,33.4,30.12,SSW,209,9.2,0.0,71,0.00,CLR,,0.00,WeatherDisplay:10.37,2013-11-09 16:13:00,
2013-11-09 11:18:00,42.4,33.7,30.12,South,185,8.7,8.7,71,0.00,CLR,,0.00,WeatherDisplay:10.37,2013-11-09 16:18:00,
2013-11-09 11:23:00,42.8,33.7,30.09,South,181,11.5,11.5,70,0.00,CLR,,0.00,WeatherDisplay:10.37,2013-11-09 16:23:00,
2013-11-09 11:28:00,43.5,34.4,30.09,SSE,167,11.5,11.5,70,0.00,CLR,,0.00,WeatherDisplay:10.37,2013-11-09 16:28:00,
2013-11-09 11:33:00,44.1,34.9,30.09,South,177,10.4,10.4,70,0.00,CLR,,0.00,WeatherDisplay:10.37,2013-11-09 16:33:00,
2013-11-09 11:38:00,44.8,35.6,30.09,SSW,198,5.8,5.8,70,0.00,CLR,,0.00,WeatherDisplay:10.37,2013-11-09 16:38:00,
2013-11-09 11:43:00,45.7,36.5,30.09,SSW,203,11.5,11.5,70,0.00,CLR,,0.00,WeatherDisplay:10.37,2013-11-09 16:43:00,
2013-11-09 11:48:00,46.2,37.0,30.06,South,173,10.4,10.4,70,0.00,CLR,,0.00,WeatherDisplay:10.37,2013-11-09 16:48:00,
2013-11-09 11:53:00,46.2,37.0,30.06,SSW,212,8.1,8.1,70,0.00,CLR,,0.00,WeatherDisplay:10.37,2013-11-09 16:53:00,
2013-11-09 11:58:00,46.6,37.0,30.06,SSW,207,15.0,15.0,69,0.00,CLR,,0.00,WeatherDisplay:10.37,2013-11-09 16:58:00,
2013-11-09 12:03:00,46.2,37.0,30.06,SSW,197,17.3,17.3,70,0.00,CLR,,0.00,WeatherDisplay:10.37,2013-11-09 17:03:00,
2013-11-09 12:08:00,46.6,37.0,30.06,SW,220,9.2,9.2,69,0.00,CLR,,0.00,WeatherDisplay:10.37,2013-11-09 17:08:00,
2013-11-09 12:13:00,47.3,37.6,30.06,SW,220,8.1,8.1,69,0.00,CLR,,0.00,WeatherDisplay:10.37,2013-11-09 17:13:00,
2013-11-09 12:18:00,47.5,37.8,30.06,WSW,248,8.1,8.1,69,0.00,CLR,,0.00,WeatherDisplay:10.37,2013-11-09 17:18:00,
2013-11-09 12:23:00,47.5,37.8,30.03,WSW,237,16.1,16.1,69,0.00,CLR,,0.00,WeatherDisplay:10.37,2013-11-09 17:23:00,
2013-11-09 12:28:00,47.1,37.5,30.03,South,181,10.5,10.5,69,0.00,CLR,,0.00,WeatherDisplay:10.37,2013-11-09 17:28:00,
2013-11-09 12:34:00,46.8,37.1,30.03,WSW,256,11.5,11.5,69,0.00,CLR,,0.00,WeatherDisplay:10.37,2013-11-09 17:34:00,
2013-11-09 12:39:00,46.6,37.0,30.03,SW,216,11.5,11.5,69,0.00,CLR,,0.00,WeatherDisplay:10.37,2013-11-09 17:39:00,
2013-11-09 12:44:00,46.6,37.0,30.03,WSW,248,8.1,8.1,69,0.00,CLR,,0.00,WeatherDisplay:10.37,2013-11-09 17:44:00,
2013-11-09 12:49:00,46.9,37.3,30.03,West,261,9.2,9.2,69,0.00,CLR,,0.00,WeatherDisplay:10.37,2013-11-09 17:49:00,
2013-11-09 12:54:00,47.1,37.5,30.03,WSW,257,10.4,10.4,69,0.00,CLR,,0.00,WeatherDisplay:10.37,2013-11-09 17:54:00,
2013-11-09 12:59:00,47.3,37.6,30.03,WSW,243,11.5,11.5,69,0.00,CLR,,0.00,WeatherDisplay:10.37,2013-11-09 17:59:00,
2013-11-09 13:04:00,47.5,37.8,30.03,WSW,249,11.5,11.5,69,0.00,CLR,,0.00,WeatherDisplay:10.37,2013-11-09 18:04:00,
2013-11-09 13:09:00,48.0,38.3,30.03,SW,227,8.1,8.1,69,0.00,CLR,,0.00,WeatherDisplay:10.37,2013-11-09 18:09:00,
2013-11-09 13:14:00,48.4,38.7,30.03,WSW,247,5.8,5.8,69,0.00,CLR,,0.00,WeatherDisplay:10.37,2013-11-09 18:14:00,
2013-11-09 13:19:00,48.6,38.8,30.03,SSW,209,11.5,11.5,69,0.00,CLR,,0.00,WeatherDisplay:10.37,2013-11-09 18:19:00,
2013-11-09 13:24:00,48.4,38.7,30.03,South,184,15.0,15.0,69,0.00,OVC,,0.00,WeatherDisplay:10.37,2013-11-09 18:24:00,
2013-11-09 13:29:00,48.2,38.5,30.03,SW,226,15.0,15.0,69,0.00,OVC,,0.00,WeatherDisplay:10.37,2013-11-09 18:29:00,
2013-11-09 13:34:00,48.2,38.5,30.00,West,260,11.5,11.5,69,0.00,OVC,,0.00,WeatherDisplay:10.37,2013-11-09 18:34:00,
2013-11-09 13:39:00,48.2,38.5,30.00,South,171,9.2,9.2,69,0.00,OVC,,0.00,WeatherDisplay:10.37,2013-11-09 18:39:00,
2013-11-09 13:44:00,48.4,38.7,30.00,East,82,8.1,8.1,69,0.00,OVC,,0.00,WeatherDisplay:10.37,2013-11-09 18:44:00,
2013-11-09 13:49:00,48.4,38.7,30.00,SSW,195,8.1,8.1,69,0.00,OVC,,0.00,WeatherDisplay:10.37,2013-11-09 18:49:00,
2013-11-09 13:54:00,48.4,38.7,30.00,SW,234,5.8,5.8,69,0.00,OVC,,0.00,WeatherDisplay:10.37,2013-11-09 18:54:00,
2013-11-09 13:59:00,48.6,38.8,30.00,SSW,193,5.8,0.0,69,0.00,OVC,,0.00,WeatherDisplay:10.37,2013-11-09 18:59:00,
2013-11-09 14:04:00,48.6,38.8,30.00,West,260,8.1,8.1,69,0.00,OVC,,0.00,WeatherDisplay:10.37,2013-11-09 19:04:00,
2013-11-09 14:09:00,48.7,39.0,30.00,SW,236,12.7,12.7,69,0.00,OVC,,0.00,WeatherDisplay:10.37,2013-11-09 19:09:00,
2013-11-09 14:14:00,48.7,39.0,30.00,SSW,196,15.0,15.0,69,0.00,OVC,,0.00,WeatherDisplay:10.37,2013-11-09 19:14:00,
2013-11-09 14:19:00,49.3,39.5,29.97,SW,218,10.4,10.4,69,0.00,OVC,,0.00,WeatherDisplay:10.37,2013-11-09 19:19:00,
2013-11-09 14:24:00,50.2,40.4,29.97,WSW,248,8.1,8.1,69,0.00,OVC,,0.00,WeatherDisplay:10.37,2013-11-09 19:24:00,
2013-11-09 14:29:00,50.5,40.7,29.97,West,265,3.5,3.6,69,0.00,OVC,,0.00,WeatherDisplay:10.37,2013-11-09 19:29:00,
2013-11-09 14:34:00,50.4,40.6,29.97,SW,226,8.1,8.1,69,0.00,OVC,,0.00,WeatherDisplay:10.37,2013-11-09 19:34:00,
2013-11-09 14:39:00,50.2,40.4,29.97,SW,216,8.1,8.1,69,0.00,OVC,,0.00,WeatherDisplay:10.37,2013-11-09 19:39:00,
2013-11-09 14:44:00,50.2,40.4,29.97,SSW,197,5.8,5.8,69,0.00,OVC,,0.00,WeatherDisplay:10.37,2013-11-09 19:44:00,
2013-11-09 14:49:00,50.2,40.4,29.97,SW,229,8.1,8.1,69,0.00,OVC,,0.00,WeatherDisplay:10.37,2013-11-09 19:49:00,
2013-11-09 14:54:00,50.4,40.6,29.97,SSW,194,5.8,5.8,69,0.00,OVC,,0.00,WeatherDisplay:10.37,2013-11-09 19:54:00,
2013-11-09 14:59:00,50.4,40.6,29.97,SSE,155,5.8,5.8,69,0.00,OVC,,0.00,WeatherDisplay:10.37,2013-11-09 19:59:00,
2013-11-09 15:04:00,50.4,40.6,29.97,SW,232,10.4,10.4,69,0.00,OVC,,0.00,WeatherDisplay:10.37,2013-11-09 20:04:00,
2013-11-09 15:09:00,50.4,40.6,29.97,SW,214,5.8,5.8,69,0.00,OVC,,0.00,WeatherDisplay:10.37,2013-11-09 20:09:00,
2013-11-09 15:14:00,50.4,40.6,29.97,WSW,256,8.1,8.1,69,0.00,OVC,,0.00,WeatherDisplay:10.37,2013-11-09 20:14:00,
2013-11-09 15:19:00,50.4,40.6,29.97,South,174,5.8,5.8,69,0.00,OVC,,0.00,WeatherDisplay:10.37,2013-11-09 20:19:00,
2013-11-09 15:24:00,50.2,40.4,29.97,South,190,8.1,8.1,69,0.00,BKN,,0.00,WeatherDisplay:10.37,2013-11-09 20:24:00,
2013-11-09 15:29:00,50.2,40.4,29.97,West,269,8.1,8.1,69,0.00,BKN,,0.00,WeatherDisplay:10.37,2013-11-09 20:29:00,
2013-11-09 15:34:00,50.2,40.4,29.94,West,274,9.2,9.2,69,0.00,BKN,,0.00,WeatherDisplay:10.37,2013-11-09 20:34:00,
2013-11-09 15:39:00,50.2,40.4,29.94,SW,227,13.8,13.8,69,0.00,BKN,,0.00,WeatherDisplay:10.37,2013-11-09 20:39:00,
2013-11-09 15:44:00,50.2,40.4,29.94,SSE,164,12.7,12.7,69,0.00,BKN,,0.00,WeatherDisplay:10.37,2013-11-09 20:44:00,
2013-11-09 15:49:00,50.2,40.4,29.97,SW,215,9.2,9.2,69,0.00,BKN,,0.00,WeatherDisplay:10.37,2013-11-09 20:49:00,
2013-11-09 15:54:00,50.2,40.4,29.97,WSW,250,10.1,10.1,69,0.00,BKN,,0.00,WeatherDisplay:10.37,2013-11-09 20:54:00,
2013-11-09 15:59:00,50.4,40.6,29.97,SW,232,12.7,12.7,69,0.00,BKN,,0.00,WeatherDisplay:10.37,2013-11-09 20:59:00,
2013-11-09 16:04:00,50.2,40.4,29.94,WSW,252,12.7,12.7,69,0.00,CLR,,0.00,WeatherDisplay:10.37,2013-11-09 21:04:00,
2013-11-09 16:09:00,50.2,40.4,29.94,SE,136,8.1,8.1,69,0.00,CLR,,0.00,WeatherDisplay:10.37,2013-11-09 21:09:00,
2013-11-09 16:14:00,50.2,40.4,29.94,SSE,166,12.7,12.7,69,0.00,CLR,,0.00,WeatherDisplay:10.37,2013-11-09 21:14:00,
2013-11-09 16:19:00,50.2,40.4,29.94,SW,217,12.7,12.7,69,0.00,CLR,,0.00,WeatherDisplay:10.37,2013-11-09 21:19:00,
2013-11-09 16:24:00,50.2,40.4,29.94,WSW,249,12.7,12.7,69,0.00,CLR,,0.00,WeatherDisplay:10.37,2013-11-09 21:24:00,
2013-11-09 16:29:00,50.2,40.4,29.94,SSW,209,11.5,11.5,69,0.00,CLR,,0.00,WeatherDisplay:10.37,2013-11-09 21:29:00,
2013-11-09 16:34:00,50.2,40.4,29.94,WSW,249,15.0,15.0,69,0.00,CLR,,0.00,WeatherDisplay:10.37,2013-11-09 21:34:00,
2013-11-09 16:39:00,50.2,40.4,29.94,SW,231,5.8,5.8,69,0.00,CLR,,0.00,WeatherDisplay:10.37,2013-11-09 21:39:00,
2013-11-09 16:44:00,50.2,40.4,29.94,South,184,9.2,9.2,69,0.00,CLR,,0.00,WeatherDisplay:10.37,2013-11-09 21:44:00,
2013-11-09 16:49:00,50.2,40.4,29.94,South,178,10.4,10.4,69,0.00,CLR,,0.00,WeatherDisplay:10.37,2013-11-09 21:49:00,
2013-11-09 16:54:00,50.2,40.4,29.94,SW,229,5.8,5.8,69,0.00,CLR,,0.00,WeatherDisplay:10.37,2013-11-09 21:54:00,
2013-11-09 16:59:00,50.2,40.4,29.94,SW,234,12.7,12.7,69,0.00,CLR,,0.00,WeatherDisplay:10.37,2013-11-09 21:59:00,
2013-11-09 17:04:00,50.2,40.4,29.94,WSW,246,10.4,10.4,69,0.00,CLR,,0.00,WeatherDisplay:10.37,2013-11-09 22:04:00,
2013-11-09 17:09:00,50.0,40.2,29.94,WSW,258,8.1,8.1,69,0.00,CLR,,0.00,WeatherDisplay:10.37,2013-11-09 22:09:00,
2013-11-09 17:14:00,49.8,40.1,29.94,SW,223,10.4,10.4,69,0.00,CLR,,0.00,WeatherDisplay:10.37,2013-11-09 22:14:00,
2013-11-09 17:19:00,49.8,40.1,29.94,SW,232,5.8,5.8,69,0.00,CLR,,0.00,WeatherDisplay:10.37,2013-11-09 22:19:00,
2013-11-09 17:24:00,49.6,39.9,29.94,South,182,9.2,9.2,69,0.00,CLR,,0.00,WeatherDisplay:10.37,2013-11-09 22:24:00,
2013-11-09 17:29:00,49.6,39.9,29.94,WSW,239,8.1,8.1,69,0.00,CLR,,0.00,WeatherDisplay:10.37,2013-11-09 22:29:00,
2013-11-09 17:34:00,49.5,39.7,29.94,SW,231,10.5,10.5,69,0.00,CLR,,0.00,WeatherDisplay:10.37,2013-11-09 22:34:00,
2013-11-09 17:39:00,49.3,39.5,29.94,South,185,10.4,10.4,69,0.00,CLR,,0.00,WeatherDisplay:10.37,2013-11-09 22:39:00,
2013-11-09 17:44:00,48.9,39.2,29.94,SW,232,9.6,9.6,69,0.00,CLR,,0.00,WeatherDisplay:10.37,2013-11-09 22:44:00,
2013-11-09 17:49:00,48.9,39.2,29.94,SW,220,11.5,11.5,69,0.00,CLR,,0.00,WeatherDisplay:10.37,2013-11-09 22:49:00,
2013-11-09 17:54:00,48.7,39.0,29.94,SSW,205,8.1,8.1,69,0.00,CLR,,0.00,WeatherDisplay:10.37,2013-11-09 22:54:00,
2013-11-09 17:59:00,48.6,38.8,29.94,SSW,196,12.7,12.7,69,0.00,CLR,,0.00,WeatherDisplay:10.37,2013-11-09 22:59:00,
2013-11-09 18:04:00,48.7,39.0,29.97,SW,230,11.5,11.5,69,0.00,CLR,,0.00,WeatherDisplay:10.37,2013-11-09 23:04:00,
2013-11-09 18:09:00,48.7,39.0,29.97,WSW,247,10.4,10.4,69,0.00,CLR,,0.00,WeatherDisplay:10.37,2013-11-09 23:09:00,
2013-11-09 18:14:00,48.6,38.8,29.97,South,170,8.1,8.1,69,0.00,CLR,,0.00,WeatherDisplay:10.37,2013-11-09 23:14:00,
2013-11-09 18:20:00,48.2,38.5,29.97,South,182,8.1,8.1,69,0.00,CLR,,0.00,WeatherDisplay:10.37,2013-11-09 23:20:00,
2013-11-09 18:25:00,48.0,38.3,29.97,SW,214,8.1,8.1,69,0.00,CLR,,0.00,WeatherDisplay:10.37,2013-11-09 23:25:00,
2013-11-09 18:30:00,47.8,38.2,29.97,SSW,210,10.1,10.1,69,0.00,CLR,,0.00,WeatherDisplay:10.37,2013-11-09 23:30:00,
2013-11-09 18:35:00,47.8,38.2,29.97,WNW,288,8.1,8.1,69,0.00,CLR,,0.00,WeatherDisplay:10.37,2013-11-09 23:35:00,
2013-11-09 18:40:00,47.8,38.2,29.97,SW,230,12.7,12.7,69,0.00,CLR,,0.00,WeatherDisplay:10.37,2013-11-09 23:40:00,
2013-11-09 18:45:00,47.7,38.0,29.97,SW,226,12.7,12.7,69,0.00,CLR,,0.00,WeatherDisplay:10.37,2013-11-09 23:45:00,
2013-11-09 18:50:00,47.8,38.2,29.97,SW,225,12.7,12.7,69,0.00,CLR,,0.00,WeatherDisplay:10.37,2013-11-09 23:50:00,
2013-11-09 18:55:00,48.0,38.3,29.97,WSW,254,12.7,12.7,69,0.00,CLR,,0.00,WeatherDisplay:10.37,2013-11-09 23:55:00,
2013-11-09 19:00:00,48.0,38.3,29.97,WSW,249,15.0,15.0,69,0.00,CLR,,0.00,WeatherDisplay:10.37,2013-11-10 00:00:00,
2013-11-09 19:05:00,47.8,38.2,29.97,SSW,209,12.7,12.7,69,0.00,CLR,,0.00,WeatherDisplay:10.37,2013-11-10 00:05:00,
2013-11-09 19:10:00,47.7,38.0,29.97,West,263,8.1,8.1,69,0.00,CLR,,0.00,WeatherDisplay:10.37,2013-11-10 00:10:00,
2013-11-09 19:15:00,47.5,37.8,29.97,WSW,246,15.0,15.0,69,0.00,CLR,,0.00,WeatherDisplay:10.37,2013-11-10 00:15:00,
2013-11-09 19:20:00,47.7,38.0,29.97,WSW,251,10.5,10.5,69,0.00,CLR,,0.00,WeatherDisplay:10.37,2013-11-10 00:20:00,
2013-11-09 19:25:00,47.7,38.0,29.97,SSW,192,10.4,10.4,69,0.00,CLR,,0.00,WeatherDisplay:10.37,2013-11-10 00:25:00,
2013-11-09 19:30:00,47.7,38.0,29.97,SW,230,10.4,10.4,69,0.00,CLR,,0.00,WeatherDisplay:10.37,2013-11-10 00:30:00,
2013-11-09 19:35:00,47.7,38.0,29.94,SW,236,8.1,8.1,69,0.00,CLR,,0.00,WeatherDisplay:10.37,2013-11-10 00:35:00,
2013-11-09 19:40:00,47.5,37.8,29.94,WSW,254,5.8,5.8,69,0.00,CLR,,0.00,WeatherDisplay:10.37,2013-11-10 00:40:00,
2013-11-09 19:45:00,47.7,38.0,29.94,SSW,194,3.5,3.5,69,0.00,CLR,,0.00,WeatherDisplay:10.37,2013-11-10 00:45:00,
2013-11-09 19:50:00,47.7,38.0,29.97,SW,232,8.1,8.1,69,0.00,CLR,,0.00,WeatherDisplay:10.37,2013-11-10 00:50:00,
2013-11-09 19:55:00,47.7,38.0,29.97,WSW,257,8.1,8.1,69,0.00,CLR,,0.00,WeatherDisplay:10.37,2013-11-10 00:55:00,
2013-11-09 20:00:00,47.5,37.8,29.97,WSW,242,6.3,6.3,69,0.00,CLR,,0.00,WeatherDisplay:10.37,2013-11-10 01:00:00,
2013-11-09 20:05:00,47.5,37.8,29.94,WSW,244,10.4,10.4,69,0.00,CLR,,0.00,WeatherDisplay:10.37,2013-11-10 01:05:00,
2013-11-09 20:10:00,47.5,37.8,29.94,SW,220,8.1,8.1,69,0.00,CLR,,0.00,WeatherDisplay:10.37,2013-11-10 01:10:00,
2013-11-09 20:15:00,47.5,37.8,29.94,SW,236,5.8,5.8,69,0.00,CLR,,0.00,WeatherDisplay:10.37,2013-11-10 01:15:00,
2013-11-09 20:20:00,47.3,37.6,29.94,West,279,8.3,8.3,69,0.00,CLR,,0.00,WeatherDisplay:10.37,2013-11-10 01:20:00,
2013-11-09 20:25:00,47.3,37.6,29.94,SSW,210,5.8,5.8,69,0.00,CLR,,0.00,WeatherDisplay:10.37,2013-11-10 01:25:00,
2013-11-09 20:30:00,47.3,37.6,29.94,SSW,196,8.1,8.1,69,0.00,CLR,,0.00,WeatherDisplay:10.37,2013-11-10 01:30:00,
2013-11-09 20:35:00,47.3,37.6,29.94,WSW,246,11.5,11.5,69,0.00,CLR,,0.00,WeatherDisplay:10.37,2013-11-10 01:35:00,
2013-11-09 20:40:00,47.5,37.8,29.94,SW,235,5.8,5.8,69,0.00,CLR,,0.00,WeatherDisplay:10.37,2013-11-10 01:40:00,
2013-11-09 20:45:00,47.7,38.0,29.94,SW,230,8.0,8.0,69,0.00,CLR,,0.00,WeatherDisplay:10.37,2013-11-10 01:45:00,
2013-11-09 20:50:00,47.8,38.2,29.94,SW,231,9.2,9.2,69,0.00,CLR,,0.00,WeatherDisplay:10.37,2013-11-10 01:50:00,
2013-11-09 20:55:00,47.7,38.0,29.94,SW,227,8.7,8.7,69,0.00,CLR,,0.00,WeatherDisplay:10.37,2013-11-10 01:55:00,
2013-11-09 21:00:00,47.7,38.0,29.94,WSW,257,5.8,5.8,69,0.00,CLR,,0.00,WeatherDisplay:10.37,2013-11-10 02:00:00,
2013-11-09 21:05:00,47.8,38.2,29.94,SW,225,8.1,8.1,69,0.00,CLR,,0.00,WeatherDisplay:10.37,2013-11-10 02:05:00,
2013-11-09 21:10:00,48.0,38.3,29.94,WNW,284,5.8,5.8,69,0.00,CLR,,0.00,WeatherDisplay:10.37,2013-11-10 02:10:00,
2013-11-09 21:15:00,48.0,38.3,29.94,SW,215,12.7,12.7,69,0.00,CLR,,0.00,WeatherDisplay:10.37,2013-11-10 02:15:00,
2013-11-09 21:20:00,48.2,38.5,29.94,WNW,285,8.1,8.1,69,0.00,CLR,,0.00,WeatherDisplay:10.37,2013-11-10 02:20:00,
2013-11-09 21:25:00,48.2,38.5,29.94,WNW,291,8.1,8.1,69,0.00,CLR,,0.00,WeatherDisplay:10.37,2013-11-10 02:25:00,
2013-11-09 21:30:00,48.4,38.7,29.94,WSW,252,5.8,5.8,69,0.00,CLR,,0.00,WeatherDisplay:10.37,2013-11-10 02:30:00,
2013-11-09 21:35:00,48.6,38.8,29.94,South,179,9.2,9.2,69,0.00,CLR,,0.00,WeatherDisplay:10.37,2013-11-10 02:35:00,
2013-11-09 21:40:00,48.6,38.8,29.94,SW,229,8.1,8.1,69,0.00,CLR,,0.00,WeatherDisplay:10.37,2013-11-10 02:40:00,
2013-11-09 21:45:00,48.6,38.8,29.94,WSW,240,5.8,5.8,69,0.00,CLR,,0.00,WeatherDisplay:10.37,2013-11-10 02:45:00,
2013-11-09 21:50:00,48.7,39.0,29.94,SW,229,5.8,5.8,69,0.00,CLR,,0.00,WeatherDisplay:10.37,2013-11-10 02:50:00,
2013-11-09 21:55:00,48.9,39.2,29.94,West,271,10.4,10.4,69,0.00,CLR,,0.00,WeatherDisplay:10.37,2013-11-10 02:55:00,
2013-11-09 22:00:00,49.1,39.4,29.94,West,277,11.5,11.5,69,0.00,CLR,,0.00,WeatherDisplay:10.37,2013-11-10 03:00:00,
2013-11-09 22:05:00,49.3,39.5,29.94,SW,218,8.1,8.1,69,0.00,OVC,,0.00,WeatherDisplay:10.37,2013-11-10 03:05:00,
2013-11-09 22:10:00,49.5,39.7,29.94,West,269,11.8,11.8,69,0.00,OVC,,0.00,WeatherDisplay:10.37,2013-11-10 03:10:00,
2013-11-09 22:15:00,49.5,39.7,29.94,WNW,290,11.5,11.5,69,0.00,OVC,,0.00,WeatherDisplay:10.37,2013-11-10 03:15:00,
2013-11-09 22:20:00,49.6,39.9,29.94,West,272,12.7,12.7,69,0.00,OVC,,0.00,WeatherDisplay:10.37,2013-11-10 03:20:00,
2013-11-09 22:25:00,49.8,40.1,29.94,West,265,19.6,19.6,69,0.00,OVC,,0.00,WeatherDisplay:10.37,2013-11-10 03:25:00,
2013-11-09 22:31:00,49.6,39.9,29.94,West,266,8.1,8.1,69,0.00,OVC,,0.00,WeatherDisplay:10.37,2013-11-10 03:31:00,
2013-11-09 22:36:00,49.6,39.9,29.94,West,259,12.7,12.7,69,0.00,OVC,,0.00,WeatherDisplay:10.37,2013-11-10 03:36:00,
2013-11-09 22:41:00,49.5,39.7,29.94,SSW,198,17.3,17.3,69,0.00,OVC,,0.00,WeatherDisplay:10.37,2013-11-10 03:41:00,
2013-11-09 22:46:00,49.5,39.7,29.94,NNW,332,8.1,8.1,69,0.00,OVC,,0.00,WeatherDisplay:10.37,2013-11-10 03:46:00,
2013-11-09 22:51:00,49.3,39.5,29.94,SSW,213,11.5,11.5,69,0.00,OVC,,0.00,WeatherDisplay:10.37,2013-11-10 03:51:00,
2013-11-09 22:56:00,49.1,39.4,29.94,West,262,11.5,11.5,69,0.00,OVC,,0.00,WeatherDisplay:10.37,2013-11-10 03:56:00,
2013-11-09 23:01:00,49.1,39.4,29.94,WSW,248,16.1,16.1,69,0.00,OVC,,0.00,WeatherDisplay:10.37,2013-11-10 04:01:00,
2013-11-09 23:06:00,49.1,39.4,29.94,West,281,15.0,15.0,69,0.00,OVC,,0.00,WeatherDisplay:10.37,2013-11-10 04:06:00,
2013-11-09 23:11:00,48.9,39.2,29.94,SW,217,11.5,11.5,69,0.00,OVC,,0.00,WeatherDisplay:10.37,2013-11-10 04:11:00,
2013-11-09 23:16:00,48.9,39.2,29.94,West,268,15.0,15.0,69,0.00,OVC,,0.00,WeatherDisplay:10.37,2013-11-10 04:16:00,
2013-11-09 23:21:00,48.9,39.2,29.94,West,261,17.3,17.3,69,0.00,OVC,,0.00,WeatherDisplay:10.37,2013-11-10 04:21:00,
2013-11-09 23:26:00,48.9,39.2,29.94,West,259,13.8,13.8,69,0.00,OVC,,0.00,WeatherDisplay:10.37,2013-11-10 04:26:00,
2013-11-09 23:31:00,48.7,39.0,29.94,SW,233,13.8,13.8,69,0.00,OVC,,0.00,WeatherDisplay:10.37,2013-11-10 04:31:00,
2013-11-09 23:36:00,48.7,39.0,29.94,West,277,12.7,12.7,69,0.00,OVC,,0.00,WeatherDisplay:10.37,2013-11-10 04:36:00,
2013-11-09 23:41:00,48.7,39.0,29.94,WSW,247,12.7,12.7,69,0.00,OVC,,0.00,WeatherDisplay:10.37,2013-11-10 04:41:00,
2013-11-09 23:46:00,48.7,39.0,29.94,SW,233,8.1,8.1,69,0.00,OVC,,0.00,WeatherDisplay:10.37,2013-11-10 04:46:00,
2013-11-09 23:51:00,48.7,39.0,29.91,WSW,253,15.0,15.0,69,0.00,OVC,,0.00,WeatherDisplay:10.37,2013-11-10 04:51:00,
2013-11-09 23:56:00,48.7,39.0,29.91,WSW,258,10.4,10.4,69,0.00,OVC,,0.00,WeatherDisplay:10.37,2013-11-10 04:56:00,